Time;durP1;ratioP1;P1;durP2;ratioP2;P2;SDS_P1;SDS_P2;PMS_P1;PMS_P2;Temp;Humidity;BMP_temperature;BMP_pressure;BME280_temperature;BME280_humidity;BME280_pressure;Samples;Min_cycle;Max_cycle;Signal;HPM_P1;HPM_P2
2023/06/26 00:01:42;;;;;;;8.48;6.97;;;;;;;22.90;61.55;101063.56;5062232;28;20045;-76
2023/06/26 00:04:14;;;;;;;10.50;7.28;;;;;;;22.83;62.14;101059.66;5064907;28;20987;-77
2023/06/26 00:06:42;;;;;;;10.50;7.30;;;;;;;22.78;62.45;101060.03;5066728;28;20076;-77
2023/06/26 00:09:09;;;;;;;10.02;7.50;;;;;;;22.73;63.02;101062.19;5065970;28;20586;-79
2023/06/26 00:11:36;;;;;;;9.27;7.30;;;;;;;22.69;63.35;101054.50;5064711;28;20111;-79
2023/06/26 00:14:03;;;;;;;10.35;7.38;;;;;;;22.65;63.43;101057.41;5067752;28;20037;-79
2023/06/26 00:16:30;;;;;;;11.18;7.63;;;;;;;22.62;63.97;101052.31;5069459;28;20099;-80
2023/06/26 00:19:00;;;;;;;9.70;7.28;;;;;;;22.57;63.99;101054.47;5069351;28;20037;-79
2023/06/26 00:21:28;;;;;;;8.55;7.65;;;;;;;22.53;64.16;101052.16;5069593;28;20061;-79
2023/06/26 00:23:55;;;;;;;8.02;7.22;;;;;;;22.47;64.28;101048.97;5069018;28;20128;-80
2023/06/26 00:26:24;;;;;;;9.00;7.35;;;;;;;22.41;64.17;101043.22;5069897;28;20801;-80
2023/06/26 00:28:51;;;;;;;9.23;8.23;;;;;;;22.39;64.01;101047.81;5068223;28;20468;-79
2023/06/26 00:31:19;;;;;;;10.77;7.65;;;;;;;22.34;64.42;101042.81;5068126;28;20103;-80
2023/06/26 00:33:46;;;;;;;9.57;7.65;;;;;;;22.30;64.79;101036.81;5069395;28;20127;-78
2023/06/26 00:36:14;;;;;;;11.45;8.63;;;;;;;22.27;64.93;101041.56;5067424;28;20079;-75
2023/06/26 00:38:41;;;;;;;9.02;8.13;;;;;;;22.23;65.62;101040.09;5073066;28;20044;-74
2023/06/26 00:41:12;;;;;;;9.77;8.05;;;;;;;22.20;65.13;101027.75;5069067;28;20581;-76
2023/06/26 00:43:40;;;;;;;8.77;7.88;;;;;;;22.15;65.66;101028.13;5067030;28;20052;-75
2023/06/26 00:46:13;;;;;;;9.35;8.35;;;;;;;22.11;65.58;101023.09;5067175;28;20110;-75
2023/06/26 00:48:45;;;;;;;9.40;8.40;;;;;;;22.11;65.51;101031.16;5070746;28;20063;-75
2023/06/26 00:51:12;;;;;;;8.98;7.88;;;;;;;22.06;65.48;101027.94;5068512;28;20041;-75
2023/06/26 00:53:40;;;;;;;9.27;8.27;;;;;;;22.07;65.64;101029.66;5060689;28;20902;-74
2023/06/26 00:56:08;;;;;;;10.40;7.85;;;;;;;22.07;65.73;101026.97;5066831;28;20473;-74
2023/06/26 00:58:36;;;;;;;10.27;7.90;;;;;;;22.07;66.06;101035.91;5065964;28;20107;-75
2023/06/26 01:01:05;;;;;;;9.60;8.43;;;;;;;22.07;66.20;101021.59;5062327;28;20049;-76
2023/06/26 01:03:33;;;;;;;10.20;9.07;;;;;;;22.08;66.34;101016.13;5059070;28;20045;-75
2023/06/26 01:06:01;;;;;;;14.30;9.45;;;;;;;22.10;65.67;101019.53;5068372;28;20045;-76
2023/06/26 01:08:31;;;;;;;12.02;10.35;;;;;;;22.14;65.88;101026.41;5080612;28;20745;-76
2023/06/26 01:10:59;;;;;;;11.75;8.98;;;;;;;22.20;65.87;101019.72;5064384;28;20504;-78
2023/06/26 01:13:29;;;;;;;10.38;8.63;;;;;;;22.25;65.66;101020.19;5067570;28;20049;-77
2023/06/26 01:15:59;;;;;;;11.68;9.35;;;;;;;22.29;66.00;101026.19;5054084;28;20069;-78
2023/06/26 01:18:27;;;;;;;10.30;8.98;;;;;;;22.33;65.53;101020.44;5049787;28;20137;-76
2023/06/26 01:21:00;;;;;;;10.95;9.05;;;;;;;22.37;65.34;101030.97;5083808;28;20473;-76
2023/06/26 01:23:47;;;;;;;13.63;9.82;;;;;;;22.38;65.54;101030.88;5068259;28;20041;-75
2023/06/26 01:26:22;;;;;;;12.65;8.93;;;;;;;22.40;65.46;101028.06;5066456;28;20045;-75
2023/06/26 01:28:53;;;;;;;9.88;7.53;;;;;;;22.40;65.46;101026.25;5066010;28;20501;-75
2023/06/26 01:31:20;;;;;;;10.13;8.63;;;;;;;22.41;65.49;101033.31;5068352;28;20041;-74
2023/06/26 01:33:47;;;;;;;10.18;8.77;;;;;;;22.44;65.71;101016.09;5069070;28;20059;-74
2023/06/26 01:36:14;;;;;;;11.10;9.30;;;;;;;22.44;65.28;101027.72;5067143;28;20045;-75
2023/06/26 01:38:41;;;;;;;12.35;9.57;;;;;;;22.48;65.17;101029.22;5064738;28;20103;-76
2023/06/26 01:41:09;;;;;;;11.30;9.02;;;;;;;22.54;65.32;101027.84;5067490;28;20067;-76
2023/06/26 01:44:11;;;;;;;11.07;9.05;;;;;;;22.59;64.66;101036.41;5066566;28;20044;-78
2023/06/26 01:47:02;;;;;;;11.57;8.48;;;;;;;22.66;64.48;101050.22;5067500;28;20099;-76
2023/06/26 01:49:56;;;;;;;9.30;8.30;;;;;;;22.69;64.11;101043.75;5067169;28;20063;-78
2023/06/26 01:52:53;;;;;;;10.47;8.67;;;;;;;22.70;64.23;101046.31;5066527;28;20048;-78
2023/06/26 01:55:39;;;;;;;10.55;8.00;;;;;;;22.70;64.43;101057.06;5059343;28;20055;-78
2023/06/26 01:58:07;;;;;;;11.50;8.15;;;;;;;22.68;64.21;101056.34;5066674;28;20045;-75
2023/06/26 02:00:36;;;;;;;11.95;6.78;;;;;;;22.70;63.47;101066.97;5049341;28;20556;-74
2023/06/26 02:03:04;;;;;;;9.68;6.75;;;;;;;22.66;62.43;101069.03;5067214;28;20045;-74
2023/06/26 02:05:32;;;;;;;9.73;7.13;;;;;;;22.64;62.28;101069.13;5068196;28;20057;-74
2023/06/26 02:08:03;;;;;;;8.25;5.90;;;;;;;22.57;62.48;101070.59;5066098;28;20499;-81
2023/06/26 02:10:30;;;;;;;7.15;5.35;;;;;;;22.51;61.57;101071.09;5066447;28;20469;-79
2023/06/26 02:12:57;;;;;;;7.25;4.57;;;;;;;22.43;61.03;101078.88;5066624;28;20119;-79
2023/06/26 02:15:25;;;;;;;7.03;4.55;;;;;;;22.34;60.90;101073.19;5066187;28;20436;-78
2023/06/26 02:17:53;;;;;;;11.20;3.55;;;;;;;22.29;60.58;101090.63;5068427;28;20100;-78
2023/06/26 02:20:20;;;;;;;9.77;3.63;;;;;;;22.23;59.74;101091.09;5066442;28;20045;-79
2023/06/26 02:22:47;;;;;;;11.10;2.88;;;;;;;22.17;58.67;101087.94;5066870;28;20479;-78
2023/06/26 02:25:14;;;;;;;9.07;2.80;;;;;;;;;;5065849;28;20068;-76
2023/06/26 02:27:42;;;;;;;9.88;3.22;;;;;;;22.06;58.98;101084.31;5068357;28;20115;-77
2023/06/26 02:30:10;;;;;;;6.30;2.72;;;;;;;22.00;58.90;101096.38;5065687;28;20043;-76
2023/06/26 02:32:37;;;;;;;8.43;2.92;;;;;;;21.92;59.23;101085.34;5066967;28;20500;-77
2023/06/26 02:35:04;;;;;;;5.05;2.90;;;;;;;21.85;59.39;101090.31;5065769;28;20476;-77
2023/06/26 02:37:31;;;;;;;5.53;2.95;;;;;;;21.80;59.62;101089.81;5065622;28;20512;-76
2023/06/26 02:39:59;;;;;;;8.02;2.78;;;;;;;21.74;60.21;101087.56;5064592;28;20045;-76
2023/06/26 02:42:26;;;;;;;6.20;3.03;;;;;;;21.68;60.48;101084.38;5065342;28;20049;-75
2023/06/26 02:44:53;;;;;;;5.00;2.63;;;;;;;21.64;61.03;101098.13;5065139;28;20890;-76
2023/06/26 02:47:21;;;;;;;7.03;3.22;;;;;;;21.58;61.22;101102.09;5065775;28;20053;-76
2023/06/26 02:49:49;;;;;;;8.05;2.95;;;;;;;21.53;61.58;101097.06;5063283;28;20403;-76
2023/06/26 02:52:16;;;;;;;7.78;3.38;;;;;;;21.49;62.33;101100.09;5046391;28;20076;-75
2023/06/26 02:54:43;;;;;;;5.95;3.00;;;;;;;21.44;63.02;101108.47;5070490;28;20068;-75
2023/06/26 02:57:12;;;;;;;9.70;3.33;;;;;;;21.38;62.85;101096.34;5058928;28;20099;-75
2023/06/26 02:59:40;;;;;;;5.35;3.30;;;;;;;21.35;63.58;101103.75;5063137;28;20045;-74
2023/06/26 03:02:09;;;;;;;6.07;3.40;;;;;;;21.32;63.52;101103.97;5065136;28;20532;-74
2023/06/26 03:04:42;;;;;;;7.22;3.45;;;;;;;21.28;64.11;101113.19;5065255;28;20127;-74
2023/06/26 03:07:12;;;;;;;6.38;3.13;;;;;;;21.25;64.17;101123.19;5062833;28;20041;-74
2023/06/26 03:09:40;;;;;;;4.90;3.20;;;;;;;21.23;64.61;101124.25;5061202;28;20531;-71
2023/06/26 03:12:09;;;;;;;6.35;3.00;;;;;;;21.21;65.16;101123.53;5064395;28;20055;-72
2023/06/26 03:14:36;;;;;;;11.88;3.05;;;;;;;21.17;65.50;101130.91;5065612;28;20047;-73
2023/06/26 03:17:03;;;;;;;5.53;3.03;;;;;;;21.12;65.86;101132.19;5065393;28;20535;-74
2023/06/26 03:19:33;;;;;;;5.43;3.22;;;;;;;21.08;66.00;101132.41;5055564;28;20052;-74
2023/06/26 03:22:23;;;;;;;5.63;3.50;;;;;;;21.03;66.10;101133.72;5066499;28;20045;-74
2023/06/26 03:24:50;;;;;;;8.82;3.25;;;;;;;21.02;66.15;101132.84;5065316;28;20049;-74
2023/06/26 03:27:17;;;;;;;8.45;3.17;;;;;;;21.00;66.41;101134.78;5066674;28;20045;-73
2023/06/26 03:29:47;;;;;;;7.55;3.78;;;;;;;21.02;66.36;101134.66;5064800;28;20061;-74
2023/06/26 03:32:15;;;;;;;9.23;3.72;;;;;;;21.05;66.49;101137.13;5063815;28;20048;-74
2023/06/26 03:34:42;;;;;;;6.50;3.60;;;;;;;21.02;66.95;101130.16;5065840;28;20080;-74
2023/06/26 03:37:09;;;;;;;11.68;3.55;;;;;;;21.01;67.28;101138.31;5062404;28;20043;-76
2023/06/26 03:39:37;;;;;;;7.78;3.42;;;;;;;20.99;67.05;101135.75;5062305;28;20140;-76
2023/06/26 03:42:04;;;;;;;8.90;3.70;;;;;;;20.98;67.41;101136.72;5066505;28;20040;-75
2023/06/26 03:44:32;;;;;;;9.98;3.58;;;;;;;20.98;67.27;101142.06;5063692;28;20501;-75
2023/06/26 03:46:59;;;;;;;9.85;3.67;;;;;;;20.99;67.79;101143.78;5063507;28;20049;-75
2023/06/26 03:49:26;;;;;;;7.30;3.63;;;;;;;21.00;67.93;101147.31;5064544;28;20052;-73
2023/06/26 03:51:53;;;;;;;8.32;3.50;;;;;;;21.00;67.68;101147.31;5064780;28;20866;-73
2023/06/26 03:54:22;;;;;;;7.22;3.78;;;;;;;21.02;68.04;101153.44;5064869;28;20048;-73
2023/06/26 03:56:49;;;;;;;7.65;3.17;;;;;;;21.00;67.96;101148.19;5063984;28;20114;-74
2023/06/26 03:59:16;;;;;;;7.70;3.95;;;;;;;21.06;67.69;101150.44;5057580;28;20049;-74
2023/06/26 04:01:43;;;;;;;8.10;4.03;;;;;;;21.11;67.72;101150.09;5064347;28;20037;-74
2023/06/26 04:04:10;;;;;;;12.38;4.82;;;;;;;21.14;67.48;101147.22;5066419;28;20037;-74
2023/06/26 04:06:37;;;;;;;9.85;4.72;;;;;;;21.16;67.74;101149.78;5066583;28;20045;-74
2023/06/26 04:09:04;;;;;;;22.73;5.95;;;;;;;21.23;67.73;101156.41;5063484;28;20172;-74
2023/06/26 04:11:31;;;;;;;10.05;4.28;;;;;;;21.29;68.00;101155.13;5066432;28;20565;-74
2023/06/26 04:13:59;;;;;;;9.20;4.45;;;;;;;21.28;67.90;101159.63;5064364;28;20461;-74
2023/06/26 04:16:26;;;;;;;9.40;4.80;;;;;;;21.31;68.21;101155.88;5065491;28;20045;-74
2023/06/26 04:18:55;;;;;;;8.73;3.90;;;;;;;21.36;68.14;101162.63;5063159;28;20595;-74
2023/06/26 04:21:24;;;;;;;10.88;4.75;;;;;;;21.45;67.86;101165.63;5066230;28;20072;-73
2023/06/26 04:23:51;;;;;;;9.07;4.40;;;;;;;21.44;67.08;101164.78;5064340;28;20148;-75
2023/06/26 04:26:18;;;;;;;9.20;4.63;;;;;;;21.45;67.35;101181.72;5063835;28;20033;-74
2023/06/26 04:28:46;;;;;;;9.30;4.72;;;;;;;21.45;67.39;101179.03;5064756;28;20115;-74
2023/06/26 04:31:13;;;;;;;9.70;4.90;;;;;;;21.50;67.17;101180.41;5062681;28;20099;-74
2023/06/26 04:33:40;;;;;;;9.18;5.03;;;;;;;21.44;66.83;101180.88;5056701;28;20115;-74
2023/06/26 04:36:11;;;;;;;9.60;4.55;;;;;;;21.40;66.81;101185.59;5058662;28;20509;-73
2023/06/26 04:38:38;;;;;;;7.90;4.28;;;;;;;21.39;66.80;101183.00;5057233;28;20051;-71
2023/06/26 04:41:05;;;;;;;9.07;4.63;;;;;;;21.40;66.39;101193.63;5055328;28;20065;-71
2023/06/26 04:43:32;;;;;;;9.45;4.30;;;;;;;21.40;66.73;101193.63;5056229;28;20137;-71
2023/06/26 04:45:59;;;;;;;10.35;4.68;;;;;;;21.38;66.65;101197.38;5056572;28;20119;-71
2023/06/26 04:48:30;;;;;;;9.52;4.60;;;;;;;21.37;66.43;101203.69;5053994;28;20057;-71
2023/06/26 04:50:58;;;;;;;12.48;5.05;;;;;;;21.37;66.77;101211.75;5056639;28;20120;-71
2023/06/26 04:53:25;;;;;;;12.35;5.10;;;;;;;21.41;66.31;101211.44;5064580;28;20164;-71
2023/06/26 04:55:53;;;;;;;11.68;4.65;;;;;;;21.45;66.40;101203.16;5052211;28;20045;-71
2023/06/26 04:58:20;;;;;;;10.75;4.88;;;;;;;21.44;66.15;101206.81;5058262;28;20160;-71
2023/06/26 05:00:47;;;;;;;11.48;4.97;;;;;;;21.47;66.34;101206.59;5059366;28;20033;-72
2023/06/26 05:03:18;;;;;;;9.77;4.93;;;;;;;21.49;66.23;101216.25;5062318;28;20052;-71
2023/06/26 05:05:46;;;;;;;9.82;4.88;;;;;;;21.53;66.08;101217.75;5056978;28;20049;-71
2023/06/26 05:08:26;;;;;;;11.15;4.95;;;;;;;21.54;66.54;101222.16;5059804;28;20088;-71
2023/06/26 05:10:58;;;;;;;9.90;4.80;;;;;;;21.48;66.33;101222.56;5060845;28;20509;-71
2023/06/26 05:13:26;;;;;;;12.35;4.90;;;;;;;21.62;66.72;101220.78;5063537;28;20090;-71
2023/06/26 05:15:53;;;;;;;12.13;5.47;;;;;;;21.90;66.40;101225.03;5067615;28;20412;-70
2023/06/26 05:18:20;;;;;;;10.75;5.10;;;;;;;22.19;65.56;101208.63;5068984;28;20037;-71
2023/06/26 05:20:48;;;;;;;12.63;4.97;;;;;;;22.93;63.47;101215.66;5068017;28;20045;-70
2023/06/26 05:23:16;;;;;;;9.75;5.40;;;;;;;24.28;59.94;101208.59;5065672;28;20049;-70
2023/06/26 05:25:43;;;;;;;11.77;5.22;;;;;;;25.37;56.13;101211.13;5064286;28;20102;-70
2023/06/26 05:28:12;;;;;;;15.88;5.53;;;;;;;25.22;55.65;101217.84;5055437;28;20092;-71
2023/06/26 05:30:39;;;;;;;12.45;5.57;;;;;;;25.71;54.61;101204.59;5049469;28;20103;-70
2023/06/26 05:33:11;;;;;;;12.68;5.00;;;;;;;26.87;52.37;101209.47;5047426;28;20549;-71
2023/06/26 05:35:39;;;;;;;10.15;4.65;;;;;;;27.82;49.48;101214.88;5059991;28;20112;-71
2023/06/26 05:38:06;;;;;;;10.57;5.20;;;;;;;28.36;47.77;101218.56;5059116;28;20069;-71
2023/06/26 05:40:34;;;;;;;11.10;4.97;;;;;;;28.71;46.66;101223.25;5047908;28;20128;-71
2023/06/26 05:43:02;;;;;;;10.57;4.50;;;;;;;28.90;45.87;101227.69;5060675;28;20045;-72
2023/06/26 05:45:29;;;;;;;13.43;4.63;;;;;;;29.13;45.31;101228.00;5050042;28;20077;-71
2023/06/26 05:47:57;;;;;;;8.98;3.72;;;;;;;29.53;44.53;101233.88;5055024;28;20770;-71
2023/06/26 05:50:25;;;;;;;11.25;4.55;;;;;;;30.03;43.51;101241.22;5050920;28;20041;-71
2023/06/26 05:52:53;;;;;;;9.05;4.38;;;;;;;30.52;42.83;101242.34;5047996;28;20040;-71
2023/06/26 05:55:20;;;;;;;10.02;4.13;;;;;;;29.96;42.87;101248.34;5052289;28;20128;-71
2023/06/26 05:57:50;;;;;;;12.90;4.30;;;;;;;28.66;45.73;101254.41;5062358;28;20045;-71
2023/06/26 06:00:18;;;;;;;14.60;4.30;;;;;;;27.58;48.03;101252.31;5057183;28;20037;-72
2023/06/26 06:02:45;;;;;;;11.38;3.45;;;;;;;26.22;51.77;101266.75;5062762;28;20118;-73
2023/06/26 06:05:12;;;;;;;19.35;4.75;;;;;;;25.16;54.49;101270.47;5060165;28;20047;-72
2023/06/26 06:07:39;;;;;;;16.35;3.80;;;;;;;25.66;54.11;101274.34;5066670;28;20051;-72
2023/06/26 06:10:07;;;;;;;8.25;3.50;;;;;;;26.92;50.93;101277.50;5066415;28;20080;-72
2023/06/26 06:12:34;;;;;;;12.23;4.13;;;;;;;28.27;47.26;101273.69;5066608;28;20095;-73
2023/06/26 06:15:01;;;;;;;10.23;3.33;;;;;;;28.26;46.54;101268.41;5057286;28;20042;-72
2023/06/26 06:17:28;;;;;;;10.73;3.47;;;;;;;28.91;45.50;101284.47;5064147;28;20051;-73
2023/06/26 06:19:56;;;;;;;11.48;3.30;;;;;;;29.49;43.56;101281.34;5067538;28;21638;-74
2023/06/26 06:22:23;;;;;;;13.82;3.60;;;;;;;29.15;44.20;101287.56;5066894;28;20060;-74
2023/06/26 06:24:51;;;;;;;12.13;3.35;;;;;;;28.10;46.06;101299.75;5062916;28;20055;-73
2023/06/26 06:27:18;;;;;;;12.98;3.70;;;;;;;26.55;49.41;101297.94;5065458;28;20151;-74
2023/06/26 06:29:45;;;;;;;10.88;3.45;;;;;;;25.38;52.81;101304.56;5064383;28;20051;-73
2023/06/26 06:32:12;;;;;;;10.68;3.50;;;;;;;24.65;54.98;101307.94;5063804;28;20111;-74
2023/06/26 06:34:39;;;;;;;12.88;3.45;;;;;;;24.06;57.07;101314.56;5064224;28;20044;-73
2023/06/26 06:37:07;;;;;;;13.98;3.67;;;;;;;23.73;58.57;101322.44;5067756;28;20041;-73
2023/06/26 06:39:34;;;;;;;10.88;3.55;;;;;;;23.57;59.57;101322.78;5065426;28;20114;-73
2023/06/26 06:42:01;;;;;;;10.55;3.42;;;;;;;23.39;59.82;101326.91;5066375;28;20049;-73
2023/06/26 06:44:30;;;;;;;16.48;3.50;;;;;;;23.29;60.59;101331.28;5067328;28;20073;-72
2023/06/26 06:46:57;;;;;;;13.13;3.80;;;;;;;23.20;61.01;101336.41;5065156;28;20037;-74
2023/06/26 06:49:24;;;;;;;12.52;3.83;;;;;;;23.03;60.54;101337.63;5066377;28;20049;-74
2023/06/26 06:51:51;;;;;;;11.00;3.65;;;;;;;23.06;60.78;101337.41;5065085;28;20041;-73
2023/06/26 06:54:19;;;;;;;12.20;4.10;;;;;;;22.89;60.92;101329.78;5066426;28;20497;-74
2023/06/26 06:56:46;;;;;;;11.60;4.07;;;;;;;22.82;61.70;101324.00;5067108;28;20513;-73
2023/06/26 06:59:14;;;;;;;16.67;4.22;;;;;;;22.87;61.85;101324.50;5066545;28;20041;-74
2023/06/26 07:01:41;;;;;;;12.40;3.72;;;;;;;22.97;61.81;101335.44;5064436;28;20096;-74
2023/06/26 07:04:08;;;;;;;13.20;3.47;;;;;;;22.96;61.40;101342.63;5065500;28;20562;-75
2023/06/26 07:06:35;;;;;;;16.38;3.92;;;;;;;22.88;61.99;101349.56;5067299;28;20037;-75
2023/06/26 07:09:02;;;;;;;14.02;3.90;;;;;;;23.07;61.89;101349.03;5067582;28;20045;-76
2023/06/26 07:11:29;;;;;;;15.18;3.78;;;;;;;23.20;61.43;101347.16;5067377;28;20445;-73
2023/06/26 07:13:57;;;;;;;11.73;3.13;;;;;;;23.22;60.32;101353.28;5066377;28;20037;-75
2023/06/26 07:16:24;;;;;;;7.20;2.30;;;;;;;23.36;59.22;101356.72;5065382;28;20080;-75
2023/06/26 07:18:51;;;;;;;9.32;2.60;;;;;;;23.44;57.94;101356.16;5066888;28;20052;-75
2023/06/26 07:21:19;;;;;;;10.65;2.92;;;;;;;23.50;56.89;101359.22;5067084;28;20075;-74
2023/06/26 07:23:46;;;;;;;6.53;2.40;;;;;;;23.58;57.32;101372.94;5061000;28;20041;-74
2023/06/26 07:26:15;;;;;;;6.05;2.38;;;;;;;23.56;57.12;101368.66;5066723;28;20053;-75
2023/06/26 07:28:42;;;;;;;9.35;3.10;;;;;;;23.74;56.56;101379.84;5066808;28;20128;-74
2023/06/26 07:31:09;;;;;;;9.93;2.97;;;;;;;23.64;56.57;101378.84;5066747;28;20045;-75
2023/06/26 07:33:36;;;;;;;15.77;2.95;;;;;;;23.65;56.27;101383.25;5065889;28;20033;-74
2023/06/26 07:36:03;;;;;;;9.00;2.60;;;;;;;23.67;55.17;101370.50;5062279;28;20068;-73
2023/06/26 07:38:30;;;;;;;10.27;2.35;;;;;;;23.55;55.22;101396.53;5065536;28;20055;-73
2023/06/26 07:40:57;;;;;;;12.68;2.53;;;;;;;23.63;55.45;101394.09;5065030;28;20049;-73
2023/06/26 07:43:24;;;;;;;7.43;2.33;;;;;;;23.78;55.19;101393.91;5061252;28;20041;-73
2023/06/26 07:45:53;;;;;;;9.07;2.65;;;;;;;23.59;55.41;101389.97;5064921;28;20044;-73
2023/06/26 07:48:20;;;;;;;11.30;2.30;;;;;;;23.39;56.33;101410.31;5064133;28;20053;-73
2023/06/26 07:50:47;;;;;;;9.18;2.30;;;;;;;23.22;56.48;101408.88;5065460;28;20056;-72
2023/06/26 07:53:14;;;;;;;10.32;3.10;;;;;;;23.14;57.23;101405.88;5066752;28;20098;-74
2023/06/26 07:55:41;;;;;;;10.10;2.95;;;;;;;23.22;57.23;101404.38;5067226;28;20051;-72
2023/06/26 07:58:09;;;;;;;6.35;2.72;;;;;;;23.25;57.06;101414.03;5064502;28;20608;-72
2023/06/26 08:00:36;;;;;;;6.93;2.72;;;;;;;23.17;57.13;101419.09;5056260;28;20513;-73
2023/06/26 08:03:04;;;;;;;6.25;2.90;;;;;;;23.19;57.36;101415.34;5059947;28;20071;-73
2023/06/26 08:05:32;;;;;;;7.00;2.53;;;;;;;23.21;56.66;101413.41;5065987;28;20045;-73
2023/06/26 08:08:01;;;;;;;9.40;2.85;;;;;;;23.33;57.50;101413.47;5066574;28;20045;-74
2023/06/26 08:10:30;;;;;;;9.85;2.80;;;;;;;23.47;57.06;101415.94;5063448;28;20041;-74
2023/06/26 08:12:58;;;;;;;5.63;2.60;;;;;;;23.47;56.81;101424.03;5065181;28;20041;-74
2023/06/26 08:15:25;;;;;;;11.07;2.85;;;;;;;23.44;57.43;101418.91;5065592;28;20497;-73
2023/06/26 08:17:52;;;;;;;8.60;2.88;;;;;;;23.60;56.76;101421.28;5066051;28;20045;-74
2023/06/26 08:20:20;;;;;;;12.73;3.55;;;;;;;23.69;57.63;101415.19;5065771;28;20412;-74
2023/06/26 08:22:49;;;;;;;25.05;3.75;;;;;;;23.86;56.06;101424.63;5065532;28;20128;-75
2023/06/26 08:25:16;;;;;;;23.70;3.75;;;;;;;23.95;55.79;101428.47;5064455;28;20267;-74
2023/06/26 08:27:43;;;;;;;4.88;2.25;;;;;;;23.98;55.46;101414.78;5065253;28;20069;-73
2023/06/26 08:30:10;;;;;;;12.25;3.30;;;;;;;24.04;56.16;101422.34;5064649;28;20056;-74
2023/06/26 08:32:37;;;;;;;7.70;2.58;;;;;;;24.23;55.74;101422.75;5066389;28;20103;-73
2023/06/26 08:35:06;;;;;;;5.95;2.70;;;;;;;24.55;54.97;101428.25;5069541;28;20041;-73
2023/06/26 08:37:33;;;;;;;4.32;2.20;;;;;;;24.80;54.42;101415.50;5070233;28;20045;-73
2023/06/26 08:40:01;;;;;;;14.52;3.75;;;;;;;24.77;53.70;101424.72;5065953;28;20045;-73
2023/06/26 08:42:28;;;;;;;7.47;2.80;;;;;;;24.59;53.40;101416.25;5069390;28;20076;-73
2023/06/26 08:44:55;;;;;;;7.25;2.72;;;;;;;24.39;54.12;101435.84;5068317;28;20092;-74
2023/06/26 08:47:29;;;;;;;12.00;2.92;;;;;;;24.38;54.19;101437.69;5069252;28;20095;-74
2023/06/26 08:50:12;;;;;;;7.60;2.33;;;;;;;24.43;54.15;101442.69;5068629;28;20503;-74
2023/06/26 08:52:51;;;;;;;5.82;2.50;;;;;;;24.13;54.97;101449.53;5049709;28;20104;-74
2023/06/26 08:55:24;;;;;;;10.88;3.03;;;;;;;23.79;55.51;101455.69;5063225;28;20051;-74
2023/06/26 08:57:53;;;;;;;10.30;2.50;;;;;;;23.61;56.36;101457.09;5066420;28;20060;-70
2023/06/26 09:00:21;;;;;;;10.93;3.05;;;;;;;23.31;56.59;101464.66;5064478;28;20041;-72
2023/06/26 09:02:48;;;;;;;7.90;3.00;;;;;;;23.33;57.09;101445.75;5068237;28;20417;-73
2023/06/26 09:05:15;;;;;;;12.50;3.22;;;;;;;23.51;56.81;101463.19;5066978;28;20085;-73
2023/06/26 09:07:42;;;;;;;7.85;2.30;;;;;;;23.68;54.00;101458.34;5066977;28;20049;-72
2023/06/26 09:10:10;;;;;;;7.15;2.22;;;;;;;23.57;52.33;101465.41;5055611;28;20041;-73
2023/06/26 09:12:38;;;;;;;8.98;1.80;;;;;;;23.46;50.55;101462.66;5070643;28;20045;-73
2023/06/26 09:15:06;;;;;;;11.07;2.00;;;;;;;23.62;48.60;101474.97;5066769;28;20052;-69
2023/06/26 09:17:40;;;;;;;20.38;2.03;;;;;;;23.83;47.79;101476.03;5068123;28;20052;-73
2023/06/26 09:20:10;;;;;;;14.48;2.22;;;;;;;23.96;47.31;101491.28;5058263;28;20470;-73
2023/06/26 09:22:47;;;;;;;6.45;1.50;;;;;;;23.75;48.64;101485.66;5069034;28;20072;-73
2023/06/26 09:25:14;;;;;;;4.28;1.48;;;;;;;23.76;49.60;101482.81;5074878;28;20037;-72
2023/06/26 09:27:43;;;;;;;8.02;1.95;;;;;;;23.84;49.27;101484.94;5068007;28;20045;-73
2023/06/26 09:30:11;;;;;;;5.00;1.58;;;;;;;23.89;49.79;101483.63;5067993;28;20084;-72
2023/06/26 09:32:38;;;;;;;6.70;1.88;;;;;;;23.98;49.11;101486.59;5067304;28;20091;-73
2023/06/26 09:35:05;;;;;;;7.68;2.00;;;;;;;24.07;49.05;101488.56;5068611;28;20091;-72
2023/06/26 09:37:34;;;;;;;13.10;2.08;;;;;;;24.09;48.63;101489.31;5089910;28;20068;-73
2023/06/26 09:40:02;;;;;;;7.00;1.50;;;;;;;23.90;47.63;101492.56;5088449;28;20132;-72
2023/06/26 09:42:31;;;;;;;7.60;1.10;;;;;;;23.73;47.39;101485.78;5065932;28;20111;-72
2023/06/26 09:44:58;;;;;;;3.42;0.85;;;;;;;23.84;46.82;101485.81;5065886;28;20047;-72
2023/06/26 09:47:25;;;;;;;9.20;0.95;;;;;;;23.94;44.91;101491.34;5065730;28;20063;-72
2023/06/26 09:49:54;;;;;;;6.32;1.20;;;;;;;23.77;44.03;101505.25;5066252;28;20037;-72
2023/06/26 09:52:26;;;;;;;7.18;1.17;;;;;;;23.84;43.99;101504.66;5066221;28;20064;-71
2023/06/26 09:55:10;;;;;;;27.00;2.08;;;;;;;23.85;41.60;101522.53;5067509;28;20476;-72
2023/06/26 09:57:38;;;;;;;;;;;;;;;23.90;42.46;101524.88;5069569;28;20151;-72
2023/06/26 10:00:07;;;;;;;14.95;1.20;;;;;;;23.95;42.83;101516.47;5062773;28;20054;-72
2023/06/26 10:02:38;;;;;;;12.35;1.33;;;;;;;24.00;43.55;101525.91;5066366;28;20139;-73
2023/06/26 10:05:05;;;;;;;5.90;1.02;;;;;;;24.03;42.50;101522.13;5065608;28;20072;-73
2023/06/26 10:07:34;;;;;;;14.52;1.00;;;;;;;24.15;42.97;101521.19;5067531;28;20541;-73
2023/06/26 10:10:05;;;;;;;32.08;2.92;;;;;;;24.19;42.59;101549.56;5067040;28;20045;-72
2023/06/26 10:12:33;;;;;;;8.85;1.10;;;;;;;24.29;41.53;101506.63;5068403;28;20052;-73
2023/06/26 10:15:04;;;;;;;16.75;1.30;;;;;;;24.35;41.45;101516.06;5068122;28;20049;-72
2023/06/26 10:17:36;;;;;;;10.20;1.00;;;;;;;24.57;41.08;101520.63;5067591;28;20124;-73
2023/06/26 10:20:07;;;;;;;6.28;1.00;;;;;;;24.73;39.93;101514.03;5067663;28;20044;-73
2023/06/26 10:22:43;;;;;;;4.32;0.90;;;;;;;24.95;39.41;101508.63;5067158;28;20045;-73
2023/06/26 10:25:16;;;;;;;9.02;1.00;;;;;;;25.14;38.53;101525.16;5051451;28;20075;-73
2023/06/26 10:27:51;;;;;;;3.00;0.65;;;;;;;25.29;38.06;101521.19;5065752;28;20537;-73
2023/06/26 10:30:24;;;;;;;7.53;1.10;;;;;;;25.42;39.33;101523.78;5063459;28;20128;-73
2023/06/26 10:32:52;;;;;;;2.63;0.80;;;;;;;25.20;40.56;101533.59;5047469;28;20520;-73
2023/06/26 10:35:19;;;;;;;28.67;2.30;;;;;;;25.03;40.12;101544.91;5050891;28;20535;-73
2023/06/26 10:37:50;;;;;;;4.88;0.70;;;;;;;24.89;37.84;101538.78;5066064;28;20045;-74
2023/06/26 10:40:28;;;;;;;15.63;2.22;;;;;;;24.77;37.90;101543.34;5065719;28;20055;-72
2023/06/26 10:43:16;;;;;;;5.85;1.10;;;;;;;24.78;39.03;101533.41;5064287;28;20064;-73
2023/06/26 10:45:52;;;;;;;25.45;2.53;;;;;;;24.81;38.09;101552.88;5069305;28;20068;-72
2023/06/26 10:48:22;;;;;;;12.70;1.88;;;;;;;24.84;37.59;101545.53;5067540;28;20057;-72
2023/06/26 10:50:50;;;;;;;8.27;1.02;;;;;;;24.80;38.10;101553.00;5065508;28;20053;-72
2023/06/26 10:53:21;;;;;;;4.82;0.80;;;;;;;24.84;39.97;101540.13;5072328;28;20777;-72
2023/06/26 10:55:57;;;;;;;16.95;1.45;;;;;;;25.05;40.72;101545.63;5061548;28;20119;-72
2023/06/26 10:58:44;;;;;;;15.15;1.63;;;;;;;25.25;41.26;101555.66;5059489;28;20045;-72
2023/06/26 11:01:14;;;;;;;27.70;1.98;;;;;;;25.23;39.79;101562.16;5066382;28;20048;-72
2023/06/26 11:03:58;;;;;;;18.88;1.48;;;;;;;25.16;36.92;101552.84;5066040;28;20630;-73
2023/06/26 11:06:25;;;;;;;12.60;1.30;;;;;;;25.00;37.15;101586.44;5067047;28;20060;-71
2023/06/26 11:09:15;;;;;;;11.30;1.23;;;;;;;24.91;38.60;101571.88;5068003;28;20041;-72
2023/06/26 11:12:09;;;;;;;17.35;1.60;;;;;;;24.92;40.10;101561.94;5063214;28;20057;-72
2023/06/26 11:14:36;;;;;;;5.93;1.33;;;;;;;24.92;40.65;101552.03;5058323;28;20053;-73
2023/06/26 11:17:04;;;;;;;18.50;1.52;;;;;;;24.85;38.40;101566.13;5054511;28;20126;-72
2023/06/26 11:19:31;;;;;;;6.07;1.20;;;;;;;24.93;36.55;101559.13;5072140;28;20045;-73
2023/06/26 11:22:02;;;;;;;6.75;0.88;;;;;;;24.83;36.32;101582.41;5065620;28;20073;-72
2023/06/26 11:24:31;;;;;;;5.53;0.88;;;;;;;24.75;35.82;101592.94;5065392;28;20044;-71
2023/06/26 11:27:02;;;;;;;12.50;1.00;;;;;;;24.83;36.48;101603.97;5065110;28;20123;-72
2023/06/26 11:29:30;;;;;;;4.32;0.90;;;;;;;24.80;37.18;101588.06;5063629;28;20040;-72
2023/06/26 11:32:05;;;;;;;9.48;1.40;;;;;;;24.90;38.51;101589.03;5065010;28;20049;-73